createdAt,value
2023-04-11T00:01:16.358Z,10.27
2023-04-11T00:03:47.023Z,10.27
2023-04-11T00:06:27.594Z,10.26
2023-04-11T00:08:58.236Z,10.25
2023-04-11T00:11:29.114Z,10.24
2023-04-11T00:14:02.224Z,10.21
2023-04-11T00:16:34.550Z,10.18
2023-04-11T00:19:09.545Z,10.17
2023-04-11T00:21:49.302Z,10.15
2023-04-11T00:24:19.696Z,10.13
2023-04-11T00:27:10.460Z,10.13
2023-04-11T00:29:41.487Z,10.12
2023-04-11T00:32:25.752Z,10.12
2023-04-11T00:34:59.204Z,10.11
2023-04-11T00:37:36.421Z,10.10
2023-04-11T00:40:12.302Z,10.08
2023-04-11T00:42:42.853Z,10.06
2023-04-11T00:45:14.984Z,10.05
2023-04-11T00:47:48.264Z,10.05
2023-04-11T00:50:25.111Z,10.05
2023-04-11T00:52:58.011Z,10.03
2023-04-11T00:55:28.769Z,10.01
2023-04-11T00:58:09.977Z,9.98
2023-04-11T01:00:51.616Z,9.94
2023-04-11T01:03:25.727Z,9.91
2023-04-11T01:05:57.009Z,9.89
2023-04-11T01:08:31.279Z,9.86
2023-04-11T01:11:00.757Z,9.83
2023-04-11T01:13:35.978Z,9.81
2023-04-11T01:16:07.274Z,9.78
2023-04-11T01:18:38.632Z,9.75
2023-04-11T01:21:12.275Z,9.74
2023-04-11T01:23:42.878Z,9.73
2023-04-11T01:26:13.626Z,9.74
2023-04-11T01:28:54.034Z,9.73
2023-04-11T01:31:24.781Z,9.72
2023-04-11T01:33:57.819Z,9.70
2023-04-11T01:36:32.290Z,9.69
2023-04-11T01:39:02.913Z,9.68
2023-04-11T01:41:35.091Z,9.67
2023-04-11T01:44:06.161Z,9.65
2023-04-11T01:46:40.126Z,9.63
2023-04-11T01:49:10.836Z,9.62
2023-04-11T01:51:44.337Z,9.60
2023-04-11T01:54:17.549Z,9.59
2023-04-11T01:56:48.366Z,9.58
2023-04-11T01:59:19.581Z,9.56
2023-04-11T02:01:56.004Z,9.54
2023-04-11T02:04:28.066Z,9.52
2023-04-11T02:07:01.476Z,9.50
2023-04-11T02:09:32.134Z,9.48
2023-04-11T02:12:05.884Z,9.47
2023-04-11T02:14:56.548Z,9.46
2023-04-11T02:17:34.347Z,9.46
2023-04-11T02:20:07.045Z,9.45
2023-04-11T02:22:37.475Z,9.44
2023-04-11T02:25:28.268Z,9.42
2023-04-11T02:27:58.971Z,9.39
2023-04-11T02:30:51.089Z,9.36
2023-04-11T02:33:32.782Z,9.29
2023-04-11T02:36:06.497Z,9.23
2023-04-11T02:38:45.778Z,9.16
2023-04-11T02:41:19.430Z,9.08
2023-04-11T02:43:59.446Z,8.97
2023-04-11T02:46:43.131Z,8.87
2023-04-11T02:49:12.785Z,8.76
2023-04-11T02:51:43.670Z,8.67
2023-04-11T02:54:16.803Z,8.56
2023-04-11T02:56:52.772Z,8.47
2023-04-11T02:59:36.221Z,8.39
2023-04-11T03:02:07.167Z,8.30
2023-04-11T03:04:37.940Z,8.23
2023-04-11T03:07:14.512Z,8.16
2023-04-11T03:09:45.769Z,8.10
2023-04-11T03:12:16.302Z,8.06
2023-04-11T03:14:54.963Z,8.01
2023-04-11T03:17:45.771Z,7.97
2023-04-11T03:20:19.570Z,7.93
2023-04-11T03:23:02.249Z,7.87
2023-04-11T03:25:37.747Z,7.81
2023-04-11T03:28:08.961Z,7.77
2023-04-11T03:30:48.913Z,7.72
2023-04-11T03:33:22.645Z,7.67
2023-04-11T03:35:56.389Z,7.63
2023-04-11T03:38:27.290Z,7.58
2023-04-11T03:41:01.150Z,7.56
2023-04-11T03:43:51.866Z,7.51
2023-04-11T03:46:21.845Z,7.48
2023-04-11T03:48:55.763Z,7.45
2023-04-11T03:51:27.711Z,7.42
2023-04-11T03:54:06.271Z,7.40
2023-04-11T03:56:39.773Z,7.40
2023-04-11T03:59:13.129Z,7.39
2023-04-11T04:02:08.366Z,7.36
2023-04-11T04:04:43.517Z,7.33
2023-04-11T04:07:24.113Z,7.31
2023-04-11T04:09:57.718Z,7.28
2023-04-11T04:12:38.344Z,7.28
2023-04-11T04:15:15.041Z,7.27
2023-04-11T04:17:48.556Z,7.25
2023-04-11T04:20:34.859Z,7.24
2023-04-11T04:23:08.296Z,7.22
2023-04-11T04:25:52.590Z,7.20
2023-04-11T04:28:46.096Z,7.19
2023-04-11T04:31:22.325Z,7.16
2023-04-11T04:33:53.382Z,7.14
2023-04-11T04:36:28.605Z,7.14
2023-04-11T04:39:10.681Z,7.13
2023-04-11T04:41:43.381Z,7.12
2023-04-11T04:44:17.458Z,7.11
2023-04-11T04:47:00.366Z,7.10
2023-04-11T04:49:34.154Z,7.10
2023-04-11T04:52:27.301Z,7.10
2023-04-11T04:54:59.293Z,7.12
2023-04-11T04:57:49.979Z,7.12
2023-04-11T05:00:26.111Z,7.12
2023-04-11T05:03:00.218Z,7.12
2023-04-11T05:05:34.351Z,7.12
2023-04-11T05:08:25.965Z,7.11
2023-04-11T05:10:59.511Z,7.11
2023-04-11T05:13:34.812Z,7.12
2023-04-11T05:16:17.739Z,7.13
2023-04-11T05:18:58.351Z,7.13
2023-04-11T05:21:49.100Z,7.15
2023-04-11T05:24:22.145Z,7.16
2023-04-11T05:27:13.456Z,7.17
2023-04-11T05:29:46.862Z,7.18
2023-04-11T05:32:26.663Z,7.19
2023-04-11T05:35:09.085Z,7.21
2023-04-11T05:37:58.274Z,7.23
2023-04-11T05:40:33.681Z,7.24
2023-04-11T05:43:06.991Z,7.26
2023-04-11T05:45:45.507Z,7.28
2023-04-11T05:48:26.083Z,7.29
2023-04-11T05:50:57.083Z,7.36
2023-04-11T05:53:44.194Z,7.41
2023-04-11T05:56:23.833Z,7.47
2023-04-11T05:58:54.385Z,7.53
2023-04-11T06:01:26.369Z,7.59
2023-04-11T06:03:57.727Z,7.64
2023-04-11T06:06:28.730Z,7.70
2023-04-11T06:08:59.141Z,7.73
2023-04-11T06:11:32.047Z,7.76
2023-04-11T06:14:02.648Z,7.78
2023-04-11T06:16:38.911Z,7.81
2023-04-11T06:19:09.952Z,7.83
2023-04-11T06:21:42.703Z,7.86
2023-04-11T06:24:19.150Z,7.88
2023-04-11T06:26:50.672Z,7.92
2023-04-11T06:29:43.654Z,7.98
2023-04-11T06:32:16.758Z,8.03
2023-04-11T06:34:52.382Z,8.07
2023-04-11T06:37:26.329Z,8.12
2023-04-11T06:39:59.614Z,8.17
2023-04-11T06:42:33.052Z,8.21
2023-04-11T06:45:15.483Z,8.27
2023-04-11T06:47:44.539Z,8.33
2023-04-11T06:50:28.153Z,8.36
2023-04-11T06:52:58.977Z,8.40
2023-04-11T06:55:29.600Z,8.44
2023-04-11T06:58:03.119Z,8.50
2023-04-11T07:00:42.087Z,8.56
2023-04-11T07:03:15.756Z,8.66
2023-04-11T07:05:50.700Z,8.72
2023-04-11T07:08:24.354Z,8.78
2023-04-11T07:10:55.091Z,8.83
2023-04-11T07:13:35.994Z,8.88
2023-04-11T07:16:07.466Z,8.90
2023-04-11T07:18:40.833Z,8.91
2023-04-11T07:21:14.402Z,8.93
2023-04-11T07:23:52.671Z,8.97
2023-04-11T07:26:27.079Z,9.06
2023-04-11T07:28:59.164Z,9.10
2023-04-11T07:31:29.880Z,9.20
2023-04-11T07:34:00.712Z,9.27
2023-04-11T07:36:31.596Z,9.21
2023-04-11T07:39:09.458Z,9.19
2023-04-11T07:41:40.814Z,9.15
2023-04-11T07:44:35.033Z,9.22
2023-04-11T07:47:16.931Z,9.41
2023-04-11T07:50:09.077Z,9.58
2023-04-11T07:52:39.678Z,9.69
2023-04-11T07:55:14.181Z,9.71
2023-04-11T07:57:44.709Z,9.68
2023-04-11T08:00:47.994Z,9.74
2023-04-11T08:03:17.703Z,9.77
2023-04-11T08:05:49.886Z,9.86
2023-04-11T08:08:31.355Z,9.95
2023-04-11T08:11:24.890Z,9.95
2023-04-11T08:13:55.780Z,9.87
2023-04-11T08:16:49.120Z,9.78
2023-04-11T08:19:25.818Z,9.73
2023-04-11T08:22:16.479Z,9.76
2023-04-11T08:24:47.196Z,9.79
2023-04-11T08:27:45.360Z,9.80
2023-04-11T08:30:20.308Z,9.83
2023-04-11T08:32:51.113Z,9.95
2023-04-11T08:35:24.748Z,10.16
2023-04-11T08:37:57.641Z,10.23
2023-04-11T08:40:28.982Z,10.21
2023-04-11T08:43:12.406Z,10.20
2023-04-11T08:45:43.657Z,10.16
2023-04-11T08:48:25.470Z,10.12
2023-04-11T08:50:58.624Z,10.09
2023-04-11T08:53:30.445Z,10.04
2023-04-11T08:56:00.915Z,10.03
2023-04-11T08:58:32.447Z,10.11
2023-04-11T09:01:32.179Z,10.17
2023-04-11T09:04:12.770Z,10.17
2023-04-11T09:07:00.537Z,10.17
2023-04-11T09:09:32.443Z,10.17
2023-04-11T09:12:03.617Z,10.32
2023-04-11T09:14:42.122Z,10.38
2023-04-11T09:17:14.439Z,10.46
2023-04-11T09:19:47.549Z,10.52
2023-04-11T09:22:19.448Z,10.70
2023-04-11T09:25:04.649Z,10.80
2023-04-11T09:27:35.434Z,10.87
2023-04-11T09:30:06.898Z,10.93
2023-04-11T09:32:37.565Z,11.01
2023-04-11T09:35:15.589Z,10.98
2023-04-11T09:37:48.487Z,10.91
2023-04-11T09:40:20.519Z,10.85
2023-04-11T09:42:57.657Z,10.76
2023-04-11T09:45:29.322Z,10.65
2023-04-11T09:48:02.377Z,10.43
2023-04-11T09:50:34.207Z,10.14
2023-04-11T09:53:06.937Z,9.75
2023-04-11T09:55:41.165Z,9.39
2023-04-11T09:58:23.600Z,9.10
2023-04-11T10:00:55.248Z,8.89
2023-04-11T10:03:27.698Z,8.81
2023-04-11T10:05:59.167Z,8.84
2023-04-11T10:09:11.419Z,8.93
2023-04-11T10:11:46.548Z,9.09
2023-04-11T10:14:47.174Z,9.26
2023-04-11T10:17:28.102Z,9.42
2023-04-11T10:20:24.478Z,9.57
2023-04-11T10:23:05.174Z,9.78
2023-04-11T10:25:51.615Z,10.04
2023-04-11T10:28:39.239Z,10.24
2023-04-11T10:31:14.238Z,10.29
2023-04-11T10:34:15.262Z,10.28
2023-04-11T10:37:06.265Z,10.13
2023-04-11T10:40:10.393Z,9.97
2023-04-11T10:42:45.634Z,10.12
2023-04-11T10:45:25.030Z,10.40
2023-04-11T10:48:08.042Z,10.78
2023-04-11T10:50:42.191Z,11.36
2023-04-11T10:53:36.414Z,11.89
2023-04-11T10:56:07.744Z,12.48
2023-04-11T10:58:38.772Z,12.82
2023-04-11T11:01:31.497Z,12.76
2023-04-11T11:04:09.264Z,12.35
2023-04-11T11:06:47.233Z,12.27
2023-04-11T11:09:26.528Z,12.33
2023-04-11T11:12:10.163Z,12.40
2023-04-11T11:14:42.782Z,12.74
2023-04-11T11:17:15.639Z,12.94
2023-04-11T11:19:48.461Z,13.14
2023-04-11T11:22:25.554Z,13.36
2023-04-11T11:25:08.191Z,13.77
2023-04-11T11:27:38.628Z,13.98
2023-04-11T11:30:15.769Z,14.11
2023-04-11T11:32:46.123Z,14.35
2023-04-11T11:35:16.676Z,14.48
2023-04-11T11:37:47.474Z,14.72
2023-04-11T11:40:19.223Z,14.84
2023-04-11T11:42:50.973Z,14.70
2023-04-11T11:45:23.363Z,14.58
2023-04-11T11:47:53.695Z,14.30
2023-04-11T11:50:29.815Z,13.97
2023-04-11T11:53:14.984Z,13.85
2023-04-11T11:55:48.332Z,13.98
2023-04-11T11:58:19.801Z,14.02
2023-04-11T12:00:52.843Z,14.27
2023-04-11T12:03:29.914Z,14.43
2023-04-11T12:06:00.983Z,14.42
2023-04-11T12:08:45.664Z,14.54
2023-04-11T12:11:18.694Z,14.57
2023-04-11T12:13:55.076Z,14.59
2023-04-11T12:16:26.883Z,14.61
2023-04-11T12:19:06.033Z,14.67
2023-04-11T12:21:37.222Z,14.81
2023-04-11T12:24:11.236Z,14.95
2023-04-11T12:29:32.676Z,15.23
2023-04-11T12:32:04.014Z,15.40
2023-04-11T12:34:34.587Z,15.29
2023-04-11T12:37:05.089Z,15.31
2023-04-11T12:39:35.510Z,15.35
2023-04-11T12:42:06.599Z,15.32
2023-04-11T12:44:36.084Z,15.32
2023-04-11T12:47:07.013Z,15.30
2023-04-11T12:49:37.795Z,15.51
2023-04-11T12:52:09.157Z,15.77
2023-04-11T12:54:39.691Z,15.93
2023-04-11T12:57:12.466Z,15.91
2023-04-11T12:59:43.119Z,16.08
2023-04-11T13:02:13.942Z,16.39
2023-04-11T13:04:44.990Z,16.53
2023-04-11T13:07:15.585Z,16.11
2023-04-11T13:09:46.227Z,15.79
2023-04-11T13:12:16.875Z,15.90
2023-04-11T13:14:47.362Z,15.72
2023-04-11T13:17:17.828Z,15.61
2023-04-11T13:19:48.247Z,15.51
2023-04-11T13:22:19.013Z,15.58
2023-04-11T13:24:49.614Z,15.69
2023-04-11T13:27:20.216Z,15.95
2023-04-11T13:29:50.771Z,16.08
2023-04-11T13:32:21.468Z,16.27
2023-04-11T13:34:52.300Z,16.28
2023-04-11T13:37:23.171Z,16.08
2023-04-11T13:39:53.694Z,15.80
2023-04-11T13:42:24.130Z,15.55
2023-04-11T13:44:54.544Z,15.43
2023-04-11T13:47:25.069Z,15.57
2023-04-11T13:49:55.659Z,15.44
2023-04-11T13:52:26.149Z,15.24
2023-04-11T13:54:56.428Z,15.03
2023-04-11T13:57:28.508Z,14.86
2023-04-11T13:59:59.228Z,14.66
2023-04-11T14:02:30.013Z,14.49
2023-04-11T14:05:01.079Z,14.26
2023-04-11T14:07:31.951Z,14.07
2023-04-11T14:10:02.456Z,13.90
2023-04-11T14:12:35.642Z,13.73
2023-04-11T14:15:07.749Z,13.59
2023-04-11T14:17:38.462Z,13.48
2023-04-11T14:20:11.808Z,13.41
2023-04-11T14:22:43.670Z,13.43
2023-04-11T14:25:15.734Z,13.46
2023-04-11T14:27:46.224Z,13.56
2023-04-11T14:30:17.083Z,13.71
2023-04-11T14:32:47.756Z,13.80
2023-04-11T14:35:18.401Z,13.87
2023-04-11T14:37:49.714Z,13.96
2023-04-11T14:40:20.648Z,14.33
2023-04-11T14:42:53.568Z,14.67
2023-04-11T14:45:24.153Z,14.77
2023-04-11T14:47:54.964Z,14.87
2023-04-11T14:50:27.006Z,15.23
2023-04-11T14:52:58.653Z,15.19
2023-04-11T14:55:31.788Z,15.04
2023-04-11T14:58:02.916Z,15.24
2023-04-11T15:00:33.696Z,15.61
2023-04-11T15:03:04.742Z,16.16
2023-04-11T15:05:35.268Z,16.44
2023-04-11T15:08:06.044Z,16.47
2023-04-11T15:10:36.869Z,16.16
2023-04-11T15:13:09.112Z,15.99
2023-04-11T15:15:39.959Z,15.65
2023-04-11T15:18:25.430Z,15.35
2023-04-11T15:20:56.937Z,15.22
2023-04-11T15:23:27.735Z,15.14
2023-04-11T15:25:59.949Z,15.17
2023-04-11T15:28:35.966Z,15.09
2023-04-11T15:31:09.119Z,14.96
2023-04-11T15:33:39.940Z,15.32
2023-04-11T15:36:11.644Z,15.59
2023-04-11T15:38:42.182Z,15.77
2023-04-11T15:41:13.144Z,15.59
2023-04-11T15:43:43.973Z,15.38
2023-04-11T15:46:14.588Z,15.14
2023-04-11T15:48:45.185Z,14.88
2023-04-11T15:51:17.382Z,14.57
2023-04-11T15:53:48.394Z,14.45
2023-04-11T15:56:19.943Z,14.40
2023-04-11T15:58:51.730Z,14.28
2023-04-11T16:01:40.472Z,14.21
2023-04-11T16:04:12.015Z,14.16
2023-04-11T16:06:42.750Z,14.14
2023-04-11T16:09:13.330Z,14.09
2023-04-11T16:11:43.660Z,14.05
2023-04-11T16:14:14.335Z,14.04
2023-04-11T16:16:47.585Z,14.04
2023-04-11T16:19:18.265Z,14.00
2023-04-11T16:21:49.104Z,14.02
2023-04-11T16:24:19.897Z,13.97
2023-04-11T16:26:50.343Z,13.94
2023-04-11T16:29:20.940Z,13.85
2023-04-11T16:31:51.621Z,13.79
2023-04-11T16:34:22.233Z,13.72
2023-04-11T16:36:53.001Z,13.67
2023-04-11T16:39:23.725Z,13.62
2023-04-11T16:41:55.919Z,13.54
2023-04-11T16:44:34.772Z,13.41
2023-04-11T16:47:05.862Z,13.31
2023-04-11T16:49:36.962Z,13.27
2023-04-11T16:52:11.902Z,13.19
2023-04-11T16:54:42.311Z,13.12
2023-04-11T16:57:13.171Z,13.08
2023-04-11T16:59:43.874Z,13.02
2023-04-11T17:02:14.414Z,12.96
2023-04-11T17:04:45.423Z,12.92
2023-04-11T17:07:16.251Z,12.84
2023-04-11T17:09:49.920Z,12.81
2023-04-11T17:12:21.089Z,12.75
2023-04-11T17:14:55.960Z,12.75
2023-04-11T17:17:26.636Z,12.71
2023-04-11T17:19:59.670Z,12.69
2023-04-11T17:22:30.462Z,12.66
2023-04-11T17:25:00.924Z,12.63
2023-04-11T17:27:31.542Z,12.59
2023-04-11T17:30:02.265Z,12.54
2023-04-11T17:32:32.936Z,12.50
2023-04-11T17:35:04.437Z,12.43
2023-04-11T17:37:37.826Z,12.34
2023-04-11T17:40:14.331Z,12.26
2023-04-11T17:42:45.816Z,12.19
2023-04-11T17:45:18.530Z,12.11
2023-04-11T17:48:00.131Z,12.01
2023-04-11T17:50:29.629Z,11.95
2023-04-11T17:53:00.621Z,11.88
2023-04-11T17:55:31.744Z,11.80
2023-04-11T17:58:05.856Z,11.71
2023-04-11T18:00:57.330Z,11.64
2023-04-11T18:03:28.651Z,11.57
2023-04-11T18:06:11.398Z,11.48
2023-04-11T18:08:51.145Z,11.38
2023-04-11T18:11:22.356Z,11.29
2023-04-11T18:13:52.826Z,11.21
2023-04-11T18:16:23.840Z,11.12
2023-04-11T18:18:54.542Z,11.04
2023-04-11T18:21:25.034Z,10.95
2023-04-11T18:24:15.789Z,10.84
2023-04-11T18:26:47.089Z,10.74
2023-04-11T18:29:16.095Z,10.65
2023-04-11T18:31:46.672Z,10.56
2023-04-11T18:34:19.781Z,10.46
2023-04-11T18:36:51.236Z,10.37
2023-04-11T18:39:42.641Z,10.27
2023-04-11T18:42:15.720Z,10.22
2023-04-11T18:44:46.736Z,10.16
2023-04-11T18:47:19.801Z,10.09
2023-04-11T18:49:50.455Z,10.03
2023-04-11T18:52:20.993Z,9.96
2023-04-11T18:54:51.550Z,9.88
2023-04-11T18:57:21.959Z,9.79
2023-04-11T19:00:04.250Z,9.71
2023-04-11T19:02:35.696Z,9.63
2023-04-11T19:05:13.696Z,9.55
2023-04-11T19:07:45.783Z,9.48
2023-04-11T19:10:27.458Z,9.42
2023-04-11T19:12:58.079Z,9.41
2023-04-11T19:15:28.976Z,9.46
2023-04-11T19:18:00.836Z,9.49
2023-04-11T19:20:36.547Z,9.49
2023-04-11T19:23:11.746Z,9.48
2023-04-11T19:25:42.884Z,9.44
2023-04-11T19:28:13.572Z,9.37
2023-04-11T19:30:44.259Z,9.28
2023-04-11T19:33:14.829Z,9.18
2023-04-11T19:35:52.878Z,9.09
2023-04-11T19:38:34.799Z,9.00
2023-04-11T19:41:14.862Z,8.93
2023-04-11T19:43:46.000Z,8.87
2023-04-11T19:46:18.215Z,8.82
2023-04-11T19:48:51.673Z,8.78
2023-04-11T19:51:22.298Z,8.75
2023-04-11T19:53:52.953Z,8.73
2023-04-11T19:56:23.839Z,8.69
2023-04-11T19:58:54.305Z,8.67
2023-04-11T20:01:25.117Z,8.65
2023-04-11T20:03:58.433Z,8.65
2023-04-11T20:06:35.000Z,8.69
2023-04-11T20:09:08.700Z,8.77
2023-04-11T20:11:39.289Z,8.90
2023-04-11T20:14:10.229Z,8.98
2023-04-11T20:16:44.072Z,9.00
2023-04-11T20:19:15.141Z,9.00
2023-04-11T20:21:46.727Z,8.95
2023-04-11T20:24:17.615Z,8.90
2023-04-11T20:26:48.350Z,8.86
2023-04-11T20:29:21.302Z,8.82
2023-04-11T20:31:51.847Z,8.79
2023-04-11T20:34:22.498Z,8.77
2023-04-11T20:36:53.341Z,8.81
2023-04-11T20:39:24.022Z,8.87
2023-04-11T20:41:56.629Z,8.93
2023-04-11T20:44:27.684Z,9.04
2023-04-11T20:46:58.302Z,9.17
2023-04-11T20:49:31.797Z,9.22
2023-04-11T20:52:02.687Z,9.24
2023-04-11T20:54:33.638Z,9.26
2023-04-11T20:57:04.828Z,9.26
2023-04-11T20:59:35.586Z,9.19
2023-04-11T21:02:06.418Z,9.08
2023-04-11T21:04:37.304Z,8.97
2023-04-11T21:07:15.834Z,8.85
2023-04-11T21:10:08.471Z,8.74
2023-04-11T21:12:39.425Z,8.66
2023-04-11T21:15:12.000Z,8.59
2023-04-11T21:17:42.655Z,8.55
2023-04-11T21:20:19.453Z,8.52
2023-04-11T21:22:52.991Z,8.49
2023-04-11T21:25:24.390Z,8.45
2023-04-11T21:27:53.547Z,8.43
2023-04-11T21:30:27.123Z,8.40
2023-04-11T21:32:57.730Z,8.37
2023-04-11T21:35:31.251Z,8.34
2023-04-11T21:38:01.807Z,8.31
2023-04-11T21:40:32.537Z,8.28
2023-04-11T21:43:03.274Z,8.27
2023-04-11T21:45:34.106Z,8.24
2023-04-11T21:48:05.185Z,8.22
2023-04-11T21:50:36.777Z,8.20
2023-04-11T21:53:07.444Z,8.18
2023-04-11T21:55:38.199Z,8.17
2023-04-11T21:58:28.696Z,8.17
2023-04-11T22:01:03.748Z,8.16
2023-04-11T22:03:33.255Z,8.16
2023-04-11T22:06:04.036Z,8.17
2023-04-11T22:08:38.412Z,8.17
2023-04-11T22:11:10.526Z,8.17
2023-04-11T22:13:40.926Z,8.18
2023-04-11T22:16:14.171Z,8.18
2023-04-11T22:18:48.991Z,8.19
2023-04-11T22:21:21.045Z,8.18
2023-04-11T22:23:54.363Z,8.18
2023-04-11T22:26:29.489Z,8.19
2023-04-11T22:29:02.766Z,8.19
2023-04-11T22:31:38.482Z,8.18
2023-04-11T22:34:09.517Z,8.17
2023-04-11T22:36:40.107Z,8.17
2023-04-11T22:39:10.848Z,8.16
2023-04-11T22:41:41.467Z,8.15
2023-04-11T22:44:12.008Z,8.15
2023-04-11T22:47:06.760Z,8.15
2023-04-11T22:49:46.093Z,8.15
2023-04-11T22:52:19.055Z,8.15
2023-04-11T22:54:49.692Z,8.14
2023-04-11T22:57:20.154Z,8.15
2023-04-11T22:59:50.670Z,8.14
2023-04-11T23:02:21.397Z,8.14
2023-04-11T23:04:52.175Z,8.13
2023-04-11T23:07:33.309Z,8.13
2023-04-11T23:10:06.023Z,8.13
2023-04-11T23:12:37.151Z,8.12
2023-04-11T23:15:09.765Z,8.10
2023-04-11T23:17:40.299Z,8.10
2023-04-11T23:20:22.257Z,8.09
2023-04-11T23:22:52.752Z,8.09
2023-04-11T23:25:25.643Z,8.08
2023-04-11T23:27:56.147Z,8.08
2023-04-11T23:30:26.908Z,8.08
2023-04-11T23:32:57.441Z,8.08
2023-04-11T23:35:31.629Z,8.09
2023-04-11T23:38:02.854Z,8.10
2023-04-11T23:40:33.538Z,8.12
2023-04-11T23:43:04.199Z,8.15
2023-04-11T23:45:35.542Z,8.18
2023-04-11T23:48:08.974Z,8.21
2023-04-11T23:50:52.706Z,8.24
2023-04-11T23:53:23.250Z,8.26
2023-04-11T23:55:54.278Z,8.28
2023-04-11T23:58:24.651Z,8.31
